createdAt,value
2022-12-25T00:00:31.143Z,67.60
2022-12-25T00:01:31.292Z,79.20
2022-12-25T00:02:31.588Z,65.00
2022-12-25T00:03:31.650Z,75.60
2022-12-25T00:04:31.752Z,80.10
2022-12-25T00:05:31.923Z,79.00
2022-12-25T00:06:32.077Z,75.10
2022-12-25T00:07:32.264Z,73.70
2022-12-25T00:08:32.444Z,66.20
2022-12-25T00:09:32.641Z,75.00
2022-12-25T00:10:32.809Z,72.00
2022-12-25T00:11:32.971Z,78.10
2022-12-25T00:12:33.194Z,83.80
2022-12-25T00:13:33.353Z,67.60
2022-12-25T00:14:33.537Z,72.50
2022-12-25T00:15:33.733Z,76.00
2022-12-25T00:16:34.065Z,75.20
2022-12-25T00:17:34.022Z,75.80
2022-12-25T00:18:34.179Z,77.50
2022-12-25T00:19:34.381Z,70.70
2022-12-25T00:20:34.545Z,76.10
2022-12-25T00:21:34.741Z,71.30
2022-12-25T00:22:34.942Z,65.70
2022-12-25T00:23:35.111Z,74.50
2022-12-25T00:24:35.288Z,71.80
2022-12-25T00:25:35.486Z,71.30
2022-12-25T00:26:35.669Z,70.40
2022-12-25T00:27:35.865Z,71.10
2022-12-25T00:28:36.057Z,80.30
2022-12-25T00:29:36.283Z,73.20
2022-12-25T00:30:36.343Z,72.90
2022-12-25T00:31:36.568Z,78.70
2022-12-25T00:32:36.615Z,68.20
2022-12-25T00:33:36.795Z,72.20
2022-12-25T00:34:36.985Z,82.00
2022-12-25T00:35:37.213Z,85.10
2022-12-25T00:36:41.657Z,71.40
2022-12-25T00:37:38.423Z,75.40
2022-12-25T00:38:37.603Z,84.30
2022-12-25T00:39:37.849Z,71.90
2022-12-25T00:40:37.881Z,80.50
2022-12-25T00:41:38.057Z,70.10
2022-12-25T00:42:38.225Z,74.90
2022-12-25T00:43:38.427Z,78.70
2022-12-25T00:44:38.604Z,76.80
2022-12-25T00:45:38.856Z,79.60
2022-12-25T00:46:38.991Z,71.10
2022-12-25T00:47:39.074Z,69.00
2022-12-25T00:48:39.237Z,74.80
2022-12-25T00:49:39.451Z,64.20
2022-12-25T00:50:39.608Z,79.50
2022-12-25T00:51:39.818Z,73.90
2022-12-25T00:52:39.985Z,74.60
2022-12-25T00:53:40.175Z,72.90
2022-12-25T00:54:40.386Z,72.40
2022-12-25T00:55:40.471Z,69.80
2022-12-25T00:56:40.652Z,78.30
2022-12-25T00:57:40.833Z,66.00
2022-12-25T00:58:41.014Z,69.60
2022-12-25T00:59:41.226Z,74.60
2022-12-25T01:00:41.323Z,68.00
2022-12-25T01:01:41.548Z,70.00
2022-12-25T01:02:41.719Z,73.80
2022-12-25T01:03:41.838Z,70.90
2022-12-25T01:04:42.027Z,62.30
2022-12-25T01:05:42.182Z,70.60
2022-12-25T01:06:42.378Z,70.30
2022-12-25T01:07:42.567Z,69.50
2022-12-25T01:08:42.736Z,70.10
2022-12-25T01:09:42.937Z,67.00
2022-12-25T01:10:43.096Z,71.40
2022-12-25T01:11:43.308Z,75.20
2022-12-25T01:12:43.463Z,66.80
2022-12-25T01:13:43.649Z,62.30
2022-12-25T01:14:43.976Z,71.40
2022-12-25T01:15:43.931Z,68.30
2022-12-25T01:16:44.168Z,63.60
2022-12-25T01:17:44.240Z,68.90
2022-12-25T01:18:44.408Z,63.90
2022-12-25T01:19:44.601Z,73.20
2022-12-25T01:20:44.783Z,75.10
2022-12-25T01:21:44.959Z,73.00
2022-12-25T01:22:45.102Z,77.40
2022-12-25T01:23:45.298Z,59.30
2022-12-25T01:24:45.479Z,72.20
2022-12-25T01:25:45.687Z,60.00
2022-12-25T01:26:45.746Z,62.30
2022-12-25T01:27:45.926Z,59.50
2022-12-25T01:28:46.216Z,67.40
2022-12-25T01:29:46.302Z,68.90
2022-12-25T01:30:46.476Z,70.00
2022-12-25T01:31:46.727Z,69.80
2022-12-25T01:32:46.793Z,65.70
2022-12-25T01:33:46.979Z,64.90
2022-12-25T01:34:50.578Z,69.70
2022-12-25T01:35:48.309Z,59.10
2022-12-25T01:36:47.465Z,64.50
2022-12-25T01:37:47.654Z,64.10
2022-12-25T01:38:47.828Z,65.50
2022-12-25T01:39:48.045Z,65.60
2022-12-25T01:40:48.115Z,70.90
2022-12-25T01:41:48.298Z,70.70
2022-12-25T01:42:48.474Z,68.70
2022-12-25T01:43:48.644Z,61.90
2022-12-25T01:44:48.835Z,64.60
2022-12-25T01:45:49.036Z,70.80
2022-12-25T01:46:49.182Z,68.90
2022-12-25T01:47:49.367Z,65.30
2022-12-25T01:48:49.530Z,65.80
2022-12-25T01:49:49.738Z,56.30
2022-12-25T01:50:49.943Z,65.40
2022-12-25T01:51:50.119Z,67.10
2022-12-25T01:52:50.297Z,65.70
2022-12-25T01:53:50.474Z,64.50
2022-12-25T01:54:50.667Z,63.70
2022-12-25T01:55:50.843Z,69.30
2022-12-25T01:56:51.012Z,62.50
2022-12-25T01:57:51.200Z,59.70
2022-12-25T01:58:51.376Z,58.70
2022-12-25T01:59:51.584Z,63.30
2022-12-25T02:00:51.800Z,58.40
2022-12-25T02:01:52.092Z,59.80
2022-12-25T02:02:52.239Z,63.20
2022-12-25T02:03:52.264Z,56.20
2022-12-25T02:04:52.499Z,61.10
2022-12-25T02:05:52.556Z,64.50
2022-12-25T02:06:52.756Z,61.20
2022-12-25T02:07:52.936Z,60.80
2022-12-25T02:08:53.109Z,57.60
2022-12-25T02:09:53.322Z,68.00
2022-12-25T02:10:53.497Z,72.60
2022-12-25T02:11:53.725Z,65.50
2022-12-25T02:12:53.855Z,59.20
2022-12-25T02:13:54.067Z,62.40
2022-12-25T02:14:56.304Z,66.30
2022-12-25T02:15:55.382Z,63.90
2022-12-25T02:16:56.993Z,62.10
2022-12-25T02:17:54.749Z,60.10
2022-12-25T02:18:54.943Z,61.50
2022-12-25T02:19:55.145Z,68.50
2022-12-25T02:20:55.346Z,64.10
2022-12-25T02:21:55.541Z,62.30
2022-12-25T02:22:55.717Z,65.40
2022-12-25T02:23:55.911Z,64.70
2022-12-25T02:24:56.104Z,61.40
2022-12-25T02:25:56.302Z,62.30
2022-12-25T02:26:56.477Z,64.50
2022-12-25T02:27:56.680Z,64.20
2022-12-25T02:28:56.857Z,58.20
2022-12-25T02:29:57.061Z,63.50
2022-12-25T02:30:57.234Z,65.20
2022-12-25T02:31:57.439Z,67.50
2022-12-25T02:32:57.543Z,68.00
2022-12-25T02:33:57.722Z,55.90
2022-12-25T02:34:57.916Z,63.40
2022-12-25T02:35:58.126Z,65.00
2022-12-25T02:36:58.286Z,68.20
2022-12-25T02:37:58.475Z,63.80
2022-12-25T02:38:58.669Z,69.20
2022-12-25T02:39:58.915Z,58.10
2022-12-25T02:40:58.982Z,66.30
2022-12-25T02:41:59.170Z,68.40
2022-12-25T02:42:59.331Z,66.50
2022-12-25T02:43:59.529Z,65.70
2022-12-25T02:44:59.747Z,58.10
2022-12-25T02:45:59.968Z,66.70
2022-12-25T02:47:00.064Z,65.50
2022-12-25T02:48:00.263Z,58.30
2022-12-25T02:49:00.457Z,61.20
2022-12-25T02:50:00.648Z,62.10
2022-12-25T02:51:00.826Z,62.40
2022-12-25T02:52:01.085Z,59.10
2022-12-25T02:53:01.144Z,63.10
2022-12-25T02:54:01.324Z,59.70
2022-12-25T02:55:01.534Z,71.20
2022-12-25T02:56:01.728Z,64.70
2022-12-25T02:57:01.904Z,66.30
2022-12-25T02:58:02.076Z,64.20
2022-12-25T02:59:02.262Z,59.50
2022-12-25T03:00:02.470Z,62.50
2022-12-25T03:01:02.691Z,58.10
2022-12-25T03:02:02.948Z,64.80
2022-12-25T03:03:03.051Z,59.40
2022-12-25T03:04:03.131Z,57.90
2022-12-25T03:05:03.353Z,57.50
2022-12-25T03:06:03.542Z,67.80
2022-12-25T03:07:03.721Z,58.50
2022-12-25T03:08:03.909Z,59.40
2022-12-25T03:09:04.110Z,59.00
2022-12-25T03:10:04.320Z,70.50
2022-12-25T03:11:04.501Z,62.80
2022-12-25T03:12:04.671Z,66.10
2022-12-25T03:13:04.869Z,58.00
2022-12-25T03:14:05.081Z,64.30
2022-12-25T03:15:05.284Z,57.80
2022-12-25T03:16:05.389Z,62.10
2022-12-25T03:17:05.632Z,60.90
2022-12-25T03:18:05.697Z,66.00
2022-12-25T03:19:05.890Z,65.10
2022-12-25T03:20:06.086Z,66.60
2022-12-25T03:21:06.290Z,62.90
2022-12-25T03:22:06.479Z,67.30
2022-12-25T03:23:06.677Z,57.80
2022-12-25T03:24:06.867Z,60.20
2022-12-25T03:25:07.091Z,66.30
2022-12-25T03:26:07.284Z,63.90
2022-12-25T03:27:07.482Z,63.80
2022-12-25T03:28:07.773Z,61.50
2022-12-25T03:29:07.831Z,56.30
2022-12-25T03:30:09.038Z,54.70
2022-12-25T03:31:08.275Z,63.70
2022-12-25T03:32:08.416Z,59.30
2022-12-25T03:33:36.710Z,58.30
2022-12-25T03:34:09.639Z,66.00
2022-12-25T03:35:08.908Z,63.90
2022-12-25T03:36:08.987Z,61.10
2022-12-25T03:37:09.172Z,59.90
2022-12-25T03:38:09.367Z,62.00
2022-12-25T03:39:09.551Z,66.50
2022-12-25T03:40:09.792Z,66.00
2022-12-25T03:41:09.877Z,60.90
2022-12-25T03:42:10.071Z,56.60
2022-12-25T03:43:10.268Z,58.90
2022-12-25T03:44:10.452Z,54.10
2022-12-25T03:45:10.650Z,64.90
2022-12-25T03:46:10.931Z,65.00
2022-12-25T03:47:11.085Z,55.00
2022-12-25T03:48:11.178Z,54.60
2022-12-25T03:49:11.388Z,62.10
2022-12-25T03:50:11.633Z,54.20
2022-12-25T03:51:11.700Z,51.10
2022-12-25T03:52:11.897Z,57.00
2022-12-25T03:53:12.097Z,56.70
2022-12-25T03:54:12.282Z,56.50
2022-12-25T03:55:12.498Z,63.80
2022-12-25T03:56:12.682Z,61.10
2022-12-25T03:57:12.889Z,57.40
2022-12-25T03:58:13.112Z,66.10
2022-12-25T03:59:17.771Z,55.90
2022-12-25T04:00:14.454Z,54.20
2022-12-25T04:01:13.711Z,57.40
2022-12-25T04:02:13.906Z,64.00
2022-12-25T04:03:14.009Z,66.50
2022-12-25T04:04:14.115Z,53.80
2022-12-25T04:05:14.330Z,56.60
2022-12-25T04:06:14.512Z,64.10
2022-12-25T04:07:14.713Z,57.70
2022-12-25T04:08:14.924Z,58.60
2022-12-25T04:09:15.118Z,58.20
2022-12-25T04:10:15.312Z,61.20
2022-12-25T04:11:15.513Z,55.10
2022-12-25T04:12:15.708Z,61.70
2022-12-25T04:13:15.909Z,57.70
2022-12-25T04:14:16.102Z,60.90
2022-12-25T04:15:16.325Z,59.50
2022-12-25T04:16:16.602Z,65.50
2022-12-25T04:17:16.671Z,52.50
2022-12-25T04:18:16.867Z,59.80
2022-12-25T04:19:17.064Z,54.70
2022-12-25T04:20:17.252Z,59.70
2022-12-25T04:21:17.451Z,62.10
2022-12-25T04:22:17.642Z,65.20
2022-12-25T04:23:17.869Z,59.10
2022-12-25T04:24:18.069Z,56.70
2022-12-25T04:25:18.282Z,56.80
2022-12-25T04:26:18.481Z,59.30
2022-12-25T04:27:18.694Z,56.00
2022-12-25T04:28:18.893Z,51.50
2022-12-25T04:29:19.107Z,54.10
2022-12-25T04:30:19.272Z,56.00
2022-12-25T04:31:19.580Z,54.90
2022-12-25T04:32:19.653Z,55.60
2022-12-25T04:33:19.859Z,58.50
2022-12-25T04:34:20.055Z,62.60
2022-12-25T04:35:20.268Z,60.70
2022-12-25T04:36:20.473Z,56.10
2022-12-25T04:37:20.666Z,52.90
2022-12-25T04:38:20.885Z,53.80
2022-12-25T04:39:21.010Z,68.60
2022-12-25T04:40:21.207Z,62.10
2022-12-25T04:41:21.434Z,62.00
2022-12-25T04:42:21.659Z,60.00
2022-12-25T04:43:21.757Z,59.10
2022-12-25T04:44:21.939Z,60.60
2022-12-25T04:45:22.154Z,55.70
2022-12-25T04:46:22.413Z,55.00
2022-12-25T04:47:22.515Z,63.60
2022-12-25T04:48:22.710Z,64.70
2022-12-25T04:49:22.913Z,68.50
2022-12-25T04:50:23.124Z,57.30
2022-12-25T04:51:23.353Z,63.50
2022-12-25T04:52:23.545Z,59.20
2022-12-25T04:53:23.746Z,65.30
2022-12-25T04:54:23.941Z,67.30
2022-12-25T04:55:24.148Z,58.90
2022-12-25T04:56:24.376Z,65.70
2022-12-25T04:57:24.582Z,68.20
2022-12-25T04:58:24.777Z,63.00
2022-12-25T04:59:25.005Z,70.10
2022-12-25T05:00:25.143Z,67.20
2022-12-25T05:01:25.417Z,70.30
2022-12-25T05:02:25.679Z,72.60
2022-12-25T05:03:25.673Z,61.60
2022-12-25T05:04:25.859Z,61.00
2022-12-25T05:05:33.074Z,70.10
2022-12-25T05:06:26.923Z,67.80
2022-12-25T05:07:26.356Z,62.70
2022-12-25T05:08:26.569Z,70.10
2022-12-25T05:09:26.778Z,68.10
2022-12-25T05:10:26.989Z,62.10
2022-12-25T05:11:27.217Z,67.60
2022-12-25T05:12:27.313Z,60.00
2022-12-25T05:13:27.533Z,65.60
2022-12-25T05:14:27.755Z,59.20
2022-12-25T05:15:27.949Z,70.90
2022-12-25T05:16:28.119Z,67.60
2022-12-25T05:17:28.216Z,55.30
2022-12-25T05:18:28.322Z,59.80
2022-12-25T05:19:28.519Z,62.00
2022-12-25T05:20:29.777Z,62.10
2022-12-25T05:21:28.901Z,53.30
2022-12-25T05:22:29.131Z,53.60
2022-12-25T05:23:29.223Z,68.30
2022-12-25T05:24:29.468Z,55.00
2022-12-25T05:25:29.549Z,65.90
2022-12-25T05:26:29.787Z,61.90
2022-12-25T05:27:29.909Z,67.20
2022-12-25T05:28:30.135Z,62.50
2022-12-25T05:29:30.207Z,57.00
2022-12-25T05:30:30.414Z,66.90
2022-12-25T05:31:30.741Z,65.50
2022-12-25T05:32:30.827Z,60.30
2022-12-25T05:33:31.042Z,63.10
2022-12-25T05:34:31.250Z,68.20
2022-12-25T05:35:31.440Z,68.90
2022-12-25T05:36:31.677Z,61.30
2022-12-25T05:37:31.860Z,61.60
2022-12-25T05:38:32.081Z,72.30
2022-12-25T05:39:32.290Z,71.20
2022-12-25T05:40:32.380Z,65.40
2022-12-25T05:41:34.647Z,80.60
2022-12-25T05:42:32.754Z,69.90
2022-12-25T05:43:32.956Z,73.50
2022-12-25T05:44:33.148Z,70.80
2022-12-25T05:45:33.354Z,61.90
2022-12-25T05:46:33.626Z,68.70
2022-12-25T05:47:33.716Z,67.80
2022-12-25T05:48:33.932Z,67.60
2022-12-25T05:49:34.127Z,63.20
2022-12-25T05:50:34.341Z,69.40
2022-12-25T05:51:34.579Z,62.10
2022-12-25T05:52:34.692Z,56.60
2022-12-25T05:53:34.886Z,65.70
2022-12-25T05:54:35.108Z,64.60
2022-12-25T05:55:35.325Z,61.80
2022-12-25T05:56:35.562Z,62.90
2022-12-25T05:57:35.654Z,63.30
2022-12-25T05:58:35.864Z,104.80
2022-12-25T05:59:36.074Z,62.40
2022-12-25T06:00:36.297Z,58.20
2022-12-25T06:01:36.632Z,64.60
2022-12-25T06:02:36.943Z,59.90
2022-12-25T06:03:36.985Z,64.00
2022-12-25T06:04:37.070Z,57.90
2022-12-25T06:05:37.307Z,60.10
2022-12-25T06:06:37.407Z,57.10
2022-12-25T06:07:37.634Z,61.50
2022-12-25T06:08:37.738Z,54.10
2022-12-25T06:09:37.948Z,57.40
2022-12-25T06:10:38.188Z,56.10
2022-12-25T06:11:38.287Z,60.70
2022-12-25T06:12:38.499Z,61.00
2022-12-25T06:13:38.714Z,63.60
2022-12-25T06:14:38.906Z,62.00
2022-12-25T06:15:39.116Z,53.20
2022-12-25T06:16:39.374Z,54.80
2022-12-25T06:17:39.502Z,56.80
2022-12-25T06:18:39.735Z,59.20
2022-12-25T06:19:39.922Z,59.40
2022-12-25T06:20:40.146Z,65.60
2022-12-25T06:21:40.356Z,60.90
2022-12-25T06:22:40.567Z,62.20
2022-12-25T06:23:40.762Z,65.70
2022-12-25T06:24:40.849Z,56.20
2022-12-25T06:25:41.094Z,59.50
2022-12-25T06:26:41.184Z,58.60
2022-12-25T06:27:41.393Z,63.60
2022-12-25T06:28:41.597Z,63.80
2022-12-25T06:29:41.803Z,58.10
2022-12-25T06:30:42.013Z,57.60
2022-12-25T06:31:42.288Z,54.60
2022-12-25T06:32:42.368Z,61.20
2022-12-25T06:33:42.602Z,52.70
2022-12-25T06:34:42.724Z,65.80
2022-12-25T06:35:42.923Z,58.00
2022-12-25T06:36:43.174Z,53.80
2022-12-25T06:37:43.255Z,61.40
2022-12-25T06:38:43.448Z,52.10
2022-12-25T06:39:43.637Z,57.10
2022-12-25T06:40:43.827Z,53.70
2022-12-25T06:41:44.045Z,57.40
2022-12-25T06:42:44.241Z,57.90
2022-12-25T06:43:44.439Z,51.00
2022-12-25T06:44:44.662Z,63.40
2022-12-25T06:45:44.945Z,100.20
2022-12-25T06:46:45.062Z,156.30
2022-12-25T06:47:45.293Z,117.70
2022-12-25T06:48:45.487Z,122.50
2022-12-25T06:49:45.726Z,80.20
2022-12-25T06:50:45.839Z,90.20
2022-12-25T06:51:46.075Z,67.60
2022-12-25T06:52:46.195Z,69.80
2022-12-25T06:53:46.415Z,52.30
2022-12-25T06:54:46.634Z,51.50
2022-12-25T06:55:46.850Z,90.70
2022-12-25T06:56:47.067Z,110.00
2022-12-25T06:57:47.288Z,147.50
2022-12-25T06:58:47.500Z,170.30
2022-12-25T06:59:54.575Z,241.40
2022-12-25T07:00:48.894Z,240.20
2022-12-25T07:01:48.207Z,224.50
2022-12-25T07:02:48.269Z,181.10
2022-12-25T07:03:48.447Z,150.70
2022-12-25T07:04:48.592Z,329.10
2022-12-25T07:05:48.760Z,271.60
2022-12-25T07:06:48.917Z,338.00
2022-12-25T07:07:49.074Z,320.80
2022-12-25T07:08:49.252Z,316.10
2022-12-25T07:09:49.425Z,302.70
2022-12-25T07:10:49.586Z,238.20
2022-12-25T07:11:49.770Z,277.10
2022-12-25T07:12:49.934Z,311.80
2022-12-25T07:13:50.088Z,365.40
2022-12-25T07:14:50.382Z,324.50
2022-12-25T07:15:50.431Z,382.00
2022-12-25T07:16:50.629Z,346.10
2022-12-25T07:17:50.719Z,335.30
2022-12-25T07:18:51.846Z,305.00
2022-12-25T07:19:51.130Z,402.50
2022-12-25T07:20:51.310Z,307.80
2022-12-25T07:21:51.472Z,260.00
2022-12-25T07:22:51.636Z,360.20
2022-12-25T07:23:51.835Z,249.30
2022-12-25T07:24:51.993Z,319.60
2022-12-25T07:25:52.153Z,219.00
2022-12-25T07:26:52.311Z,247.10
2022-12-25T07:27:52.481Z,291.40
2022-12-25T07:28:52.672Z,288.00
2022-12-25T07:29:52.823Z,220.50
2022-12-25T07:30:52.973Z,240.00
2022-12-25T07:31:53.227Z,222.50
2022-12-25T07:32:53.369Z,224.30
2022-12-25T07:33:53.528Z,196.40
2022-12-25T07:34:53.709Z,241.70
2022-12-25T07:35:53.882Z,172.10
2022-12-25T07:36:54.095Z,171.30
2022-12-25T07:37:54.253Z,171.10
2022-12-25T07:38:54.423Z,161.20
2022-12-25T07:39:54.581Z,197.90
2022-12-25T07:40:54.727Z,155.70
2022-12-25T07:41:54.894Z,174.70
2022-12-25T07:42:55.045Z,142.40
2022-12-25T07:43:55.214Z,198.20
2022-12-25T07:44:55.382Z,128.80
2022-12-25T07:45:55.552Z,115.40
2022-12-25T07:46:55.682Z,157.30
2022-12-25T07:47:57.765Z,112.00
2022-12-25T07:48:56.977Z,212.00
2022-12-25T07:49:56.139Z,173.30
2022-12-25T07:50:56.314Z,177.80
2022-12-25T07:51:56.478Z,161.40
2022-12-25T07:52:56.625Z,135.20
2022-12-25T07:53:56.792Z,177.80
2022-12-25T07:54:56.938Z,196.30
2022-12-25T07:55:57.108Z,181.30
2022-12-25T07:56:57.256Z,135.90
2022-12-25T07:57:57.416Z,141.10
2022-12-25T07:58:57.569Z,164.20
2022-12-25T07:59:57.741Z,171.30
2022-12-25T08:00:58.003Z,145.10
2022-12-25T08:01:58.218Z,120.20
2022-12-25T08:02:58.329Z,120.40
2022-12-25T08:03:58.441Z,66.20
2022-12-25T08:04:58.489Z,225.20
2022-12-25T08:05:58.670Z,160.10
2022-12-25T08:06:58.821Z,143.00
2022-12-25T08:07:58.939Z,206.90
2022-12-25T08:08:59.178Z,215.70
2022-12-25T08:09:59.290Z,164.20
2022-12-25T08:10:59.430Z,97.50
2022-12-25T08:11:59.609Z,104.50
2022-12-25T08:12:59.732Z,119.40
2022-12-25T08:13:59.859Z,189.90
2022-12-25T08:15:00.001Z,241.00
2022-12-25T08:16:00.145Z,130.70
2022-12-25T08:17:00.354Z,72.00
2022-12-25T08:18:00.396Z,134.10
2022-12-25T08:19:00.548Z,204.60
2022-12-25T08:20:00.679Z,115.00
2022-12-25T08:21:00.846Z,82.80
2022-12-25T08:22:00.986Z,87.20
2022-12-25T08:23:01.236Z,75.50
2022-12-25T08:24:01.261Z,88.40
2022-12-25T08:25:01.431Z,108.00
2022-12-25T08:26:04.985Z,92.70
2022-12-25T08:27:01.785Z,78.50
2022-12-25T08:28:01.922Z,73.80
2022-12-25T08:29:02.024Z,72.20
2022-12-25T08:30:02.155Z,70.40
2022-12-25T08:31:02.332Z,81.80
2022-12-25T08:32:02.481Z,65.00
2022-12-25T08:33:02.687Z,70.50
2022-12-25T08:34:02.788Z,45.80
2022-12-25T08:35:02.931Z,55.10
2022-12-25T08:36:03.076Z,47.50
2022-12-25T08:37:03.326Z,52.60
2022-12-25T08:38:03.447Z,53.00
2022-12-25T08:39:03.733Z,50.20
2022-12-25T08:40:03.802Z,47.20
2022-12-25T08:41:03.965Z,54.30
2022-12-25T08:42:04.171Z,42.80
2022-12-25T08:43:04.272Z,47.90
2022-12-25T08:44:04.371Z,40.20
2022-12-25T08:45:04.561Z,40.20
2022-12-25T08:46:04.840Z,46.60
2022-12-25T08:47:05.011Z,42.60
2022-12-25T08:48:05.100Z,47.80
2022-12-25T08:49:05.304Z,225.50
2022-12-25T08:50:05.510Z,111.00
2022-12-25T08:51:05.623Z,49.90
2022-12-25T08:52:05.829Z,224.60
2022-12-25T08:53:06.029Z,344.00
2022-12-25T08:54:06.214Z,223.30
2022-12-25T08:55:06.423Z,225.30
2022-12-25T08:56:06.635Z,299.00
2022-12-25T08:57:06.730Z,103.90
2022-12-25T08:58:06.821Z,149.20
2022-12-25T08:59:07.032Z,139.50
2022-12-25T09:00:07.115Z,122.50
2022-12-25T09:01:07.398Z,279.00
2022-12-25T09:02:07.612Z,181.00
2022-12-25T09:03:07.803Z,217.90
2022-12-25T09:04:07.696Z,180.50
2022-12-25T09:05:07.921Z,255.80
2022-12-25T09:06:08.004Z,312.60
2022-12-25T09:07:08.238Z,348.80
2022-12-25T09:08:08.314Z,259.30
2022-12-25T09:09:08.413Z,269.60
2022-12-25T09:10:08.612Z,429.40
2022-12-25T09:11:08.808Z,66.10
2022-12-25T09:12:09.015Z,304.70
2022-12-25T09:13:09.193Z,230.70
2022-12-25T09:14:09.386Z,45.80
2022-12-25T09:15:09.585Z,326.80
2022-12-25T09:16:09.851Z,88.00
2022-12-25T09:17:10.051Z,115.20
2022-12-25T09:18:10.127Z,315.00
2022-12-25T09:19:10.315Z,236.90
2022-12-25T09:20:10.480Z,209.50
2022-12-25T09:21:10.663Z,113.10
2022-12-25T09:22:10.848Z,205.60
2022-12-25T09:23:14.094Z,324.70
2022-12-25T09:24:11.186Z,254.50
2022-12-25T09:25:11.368Z,315.10
2022-12-25T09:26:11.552Z,142.30
2022-12-25T09:27:11.741Z,143.80
2022-12-25T09:28:11.931Z,237.20
2022-12-25T09:29:12.151Z,226.10
2022-12-25T09:30:12.307Z,176.90
2022-12-25T09:31:12.580Z,99.50
2022-12-25T09:32:12.641Z,60.60
2022-12-25T09:33:12.842Z,72.70
2022-12-25T09:34:17.233Z,89.90
2022-12-25T09:35:14.137Z,78.50
2022-12-25T09:36:13.291Z,32.90
2022-12-25T09:37:13.472Z,38.90
2022-12-25T09:38:13.631Z,33.70
2022-12-25T09:39:13.811Z,31.10
2022-12-25T09:40:13.990Z,81.10
2022-12-25T09:41:14.158Z,93.70
2022-12-25T09:42:14.327Z,40.10
2022-12-25T09:43:14.496Z,50.00
2022-12-25T09:44:14.660Z,47.10
2022-12-25T09:45:14.834Z,37.20
2022-12-25T09:46:15.054Z,34.60
2022-12-25T09:47:15.155Z,33.00
2022-12-25T09:48:15.303Z,40.40
2022-12-25T09:49:15.481Z,72.90
2022-12-25T09:50:15.651Z,41.20
2022-12-25T09:51:15.849Z,45.30
2022-12-25T09:52:16.015Z,56.90
2022-12-25T09:53:16.187Z,48.80
2022-12-25T09:54:16.338Z,30.70
2022-12-25T09:55:20.687Z,41.70
2022-12-25T09:56:16.623Z,44.50
2022-12-25T09:57:16.824Z,32.40
2022-12-25T09:58:16.983Z,46.90
2022-12-25T09:59:17.140Z,43.10
2022-12-25T10:00:17.277Z,43.10
2022-12-25T10:01:17.520Z,54.90
2022-12-25T10:02:17.716Z,82.70
2022-12-25T10:03:17.744Z,50.10
2022-12-25T10:04:17.878Z,40.10
2022-12-25T10:05:18.033Z,44.90
2022-12-25T10:06:18.177Z,97.30
2022-12-25T10:07:18.347Z,76.00
2022-12-25T10:08:18.538Z,111.60
2022-12-25T10:09:18.693Z,91.70
2022-12-25T10:10:18.898Z,85.00
2022-12-25T10:11:18.939Z,91.40
2022-12-25T10:12:19.104Z,69.60
2022-12-25T10:13:19.286Z,203.50
2022-12-25T10:14:19.434Z,140.60
2022-12-25T10:15:19.620Z,88.50
2022-12-25T10:16:19.814Z,133.70
2022-12-25T10:17:19.926Z,165.70
2022-12-25T10:18:20.083Z,147.30
2022-12-25T10:19:20.247Z,224.80
2022-12-25T10:20:20.390Z,66.40
2022-12-25T10:21:20.553Z,195.60
2022-12-25T10:22:20.719Z,99.80
2022-12-25T10:23:20.916Z,76.80
2022-12-25T10:24:21.080Z,125.90
2022-12-25T10:25:21.261Z,170.20
2022-12-25T10:26:21.427Z,68.10
2022-12-25T10:27:21.611Z,80.30
2022-12-25T10:28:21.773Z,73.90
2022-12-25T10:29:21.981Z,106.70
2022-12-25T10:30:22.094Z,129.30
2022-12-25T10:31:22.336Z,87.80
2022-12-25T10:32:22.458Z,76.70
2022-12-25T10:33:22.626Z,68.70
2022-12-25T10:34:22.785Z,75.30
2022-12-25T10:35:22.959Z,72.50
2022-12-25T10:36:23.139Z,66.40
2022-12-25T10:37:23.318Z,60.70
2022-12-25T10:38:23.499Z,77.40
2022-12-25T10:39:23.674Z,45.00
2022-12-25T10:40:23.824Z,60.90
2022-12-25T10:41:23.997Z,56.30
2022-12-25T10:42:24.192Z,63.40
2022-12-25T10:43:24.344Z,71.70
2022-12-25T10:44:24.556Z,72.60
2022-12-25T10:45:24.634Z,59.50
2022-12-25T10:46:24.798Z,61.70
2022-12-25T10:47:24.966Z,69.30
2022-12-25T10:48:25.131Z,72.50
2022-12-25T10:49:25.355Z,72.00
2022-12-25T10:50:25.443Z,65.80
2022-12-25T10:51:26.456Z,81.10
2022-12-25T10:52:25.631Z,84.60
2022-12-25T10:53:25.808Z,73.40
2022-12-25T10:54:25.977Z,54.60
2022-12-25T10:55:29.009Z,52.70
2022-12-25T10:56:26.359Z,46.10
2022-12-25T10:57:26.645Z,50.80
2022-12-25T10:58:26.699Z,49.90
2022-12-25T10:59:26.920Z,65.60
2022-12-25T11:00:26.978Z,46.30
2022-12-25T11:01:27.214Z,46.10
2022-12-25T11:02:27.506Z,54.50
2022-12-25T11:03:27.639Z,82.40
2022-12-25T11:04:27.611Z,60.30
2022-12-25T11:05:27.790Z,66.70
2022-12-25T11:06:34.975Z,61.00
2022-12-25T11:07:28.225Z,55.00
2022-12-25T11:08:28.506Z,70.40
2022-12-25T11:09:28.677Z,65.70
2022-12-25T11:10:29.747Z,77.40
2022-12-25T11:11:28.862Z,95.00
2022-12-25T11:12:28.943Z,69.30
2022-12-25T11:13:29.175Z,57.50
2022-12-25T11:14:29.265Z,71.10
2022-12-25T11:15:29.426Z,60.20
2022-12-25T11:16:29.647Z,60.30
2022-12-25T11:17:29.712Z,61.30
2022-12-25T11:18:29.896Z,62.60
2022-12-25T11:19:30.096Z,57.50
2022-12-25T11:20:30.177Z,57.30
2022-12-25T11:21:30.380Z,54.00
2022-12-25T11:22:30.459Z,50.50
2022-12-25T11:23:30.668Z,52.40
2022-12-25T11:24:30.994Z,47.30
2022-12-25T11:25:31.065Z,59.00
2022-12-25T11:26:31.969Z,51.10
2022-12-25T11:27:31.163Z,70.80
2022-12-25T11:28:31.339Z,53.30
2022-12-25T11:29:31.500Z,50.50
2022-12-25T11:30:31.672Z,43.30
2022-12-25T11:31:31.940Z,51.70
2022-12-25T11:32:32.011Z,46.70
2022-12-25T11:33:32.191Z,47.40
2022-12-25T11:34:32.364Z,49.70
2022-12-25T11:35:32.602Z,53.20
2022-12-25T11:36:32.669Z,46.10
2022-12-25T11:37:32.821Z,49.10
2022-12-25T11:38:33.024Z,44.10
2022-12-25T11:39:33.162Z,42.90
2022-12-25T11:40:33.366Z,46.80
2022-12-25T11:41:33.547Z,41.50
2022-12-25T11:42:33.788Z,44.50
2022-12-25T11:43:33.872Z,43.70
2022-12-25T11:44:34.014Z,47.50
2022-12-25T11:45:34.185Z,50.30
2022-12-25T11:46:34.419Z,45.30
2022-12-25T11:47:34.475Z,60.20
2022-12-25T11:48:34.648Z,48.00
2022-12-25T11:49:34.844Z,47.10
2022-12-25T11:50:35.024Z,47.10
2022-12-25T11:51:35.193Z,43.20
2022-12-25T11:52:35.378Z,43.50
2022-12-25T11:53:35.574Z,43.50
2022-12-25T11:54:35.840Z,48.80
2022-12-25T11:55:35.927Z,41.90
2022-12-25T11:56:36.097Z,46.00
2022-12-25T11:57:36.317Z,41.80
2022-12-25T11:58:36.354Z,40.90
2022-12-25T11:59:36.541Z,41.60
2022-12-25T12:00:36.780Z,38.70
2022-12-25T12:01:37.028Z,39.40
2022-12-25T12:02:37.267Z,40.80
2022-12-25T12:03:37.248Z,43.50
2022-12-25T12:04:42.704Z,39.20
2022-12-25T12:05:38.522Z,44.70
2022-12-25T12:06:37.676Z,42.00
2022-12-25T12:07:37.885Z,40.50
2022-12-25T12:08:37.938Z,40.60
2022-12-25T12:09:38.124Z,35.50
2022-12-25T12:10:38.306Z,38.50
2022-12-25T12:11:38.486Z,38.50
2022-12-25T12:12:43.101Z,40.80
2022-12-25T12:13:39.832Z,37.70
2022-12-25T12:14:39.008Z,40.40
2022-12-25T12:15:39.200Z,39.20
2022-12-25T12:16:39.421Z,37.40
2022-12-25T12:17:39.586Z,37.60
2022-12-25T12:18:41.798Z,38.20
2022-12-25T12:19:40.846Z,38.00
2022-12-25T12:20:40.032Z,44.60
2022-12-25T12:21:40.268Z,39.40
2022-12-25T12:22:40.353Z,37.50
2022-12-25T12:23:40.447Z,36.70
2022-12-25T12:24:40.534Z,42.00
2022-12-25T12:25:40.722Z,45.20
2022-12-25T12:26:40.924Z,39.00
2022-12-25T12:27:41.008Z,38.50
2022-12-25T12:28:41.193Z,36.90
2022-12-25T12:29:41.329Z,41.30
2022-12-25T12:30:41.522Z,44.60
2022-12-25T12:31:41.634Z,36.60
2022-12-25T12:32:41.861Z,40.90
2022-12-25T12:33:41.985Z,39.80
2022-12-25T12:34:42.143Z,42.60
2022-12-25T12:35:42.274Z,37.10
2022-12-25T12:36:42.429Z,39.80
2022-12-25T12:37:42.570Z,39.50
2022-12-25T12:38:42.711Z,37.00
2022-12-25T12:39:42.855Z,44.00
2022-12-25T12:40:43.006Z,39.00
2022-12-25T12:41:43.138Z,34.10
2022-12-25T12:42:43.306Z,41.50
2022-12-25T12:43:43.479Z,36.30
2022-12-25T12:44:43.656Z,32.90
2022-12-25T12:45:43.901Z,33.00
2022-12-25T12:46:44.027Z,37.60
2022-12-25T12:47:44.116Z,34.20
2022-12-25T12:48:44.214Z,39.10
2022-12-25T12:49:44.248Z,39.20
2022-12-25T12:50:44.401Z,38.40